createdAt,value
2016-03-27T00:00:00.183Z,0
2016-03-27T00:01:00.158Z,0
2016-03-27T00:02:00.113Z,0
2016-03-27T00:03:00.116Z,0
2016-03-27T00:04:00.103Z,0
2016-03-27T00:05:00.091Z,0
2016-03-27T00:06:00.077Z,0
2016-03-27T00:07:00.064Z,0
2016-03-27T00:08:00.052Z,0
2016-03-27T00:09:00.039Z,0
2016-03-27T00:10:00.026Z,0
2016-03-27T00:11:00.013Z,0
2016-03-27T00:12:00.000Z,0
2016-03-27T00:13:00.002Z,0
2016-03-27T00:13:59.990Z,0
2016-03-27T00:14:59.976Z,0
2016-03-27T00:15:59.963Z,0
2016-03-27T00:16:59.950Z,0
2016-03-27T00:17:59.932Z,0
2016-03-27T00:18:59.889Z,0
2016-03-27T00:19:59.861Z,0
2016-03-27T00:20:59.848Z,0
2016-03-27T00:21:59.805Z,0
2016-03-27T00:22:59.780Z,0
2016-03-27T00:23:59.777Z,0
2016-03-27T00:24:59.760Z,0
2016-03-27T00:25:59.726Z,0
2016-03-27T00:26:59.707Z,0
2016-03-27T00:27:59.706Z,0
2016-03-27T00:28:59.706Z,0
2016-03-27T00:29:59.676Z,0
2016-03-27T00:30:59.644Z,0
2016-03-27T00:31:59.630Z,0
2016-03-27T00:32:59.630Z,0
2016-03-27T00:33:59.616Z,0
2016-03-27T00:34:59.587Z,0
2016-03-27T00:35:59.589Z,0
2016-03-27T00:36:59.574Z,0
2016-03-27T00:37:59.546Z,0
2016-03-27T00:38:59.533Z,0
2016-03-27T00:39:59.521Z,0
2016-03-27T00:40:59.523Z,0
2016-03-27T00:41:59.510Z,0
2016-03-27T00:42:59.481Z,0
2016-03-27T00:43:59.485Z,0
2016-03-27T00:44:59.471Z,0
2016-03-27T00:45:59.442Z,0
2016-03-27T00:46:59.445Z,0
2016-03-27T00:47:59.432Z,0
2016-03-27T00:48:59.435Z,0
2016-03-27T00:49:59.422Z,0
2016-03-27T00:50:59.409Z,0
2016-03-27T00:51:59.397Z,0
2016-03-27T00:52:59.368Z,0
2016-03-27T00:53:59.355Z,0
2016-03-27T00:54:59.341Z,0
2016-03-27T00:55:59.329Z,0
2016-03-27T00:56:59.316Z,0
2016-03-27T00:57:59.303Z,0
2016-03-27T00:58:59.291Z,0
2016-03-27T00:59:59.293Z,0
2016-03-27T01:00:59.280Z,0
2016-03-27T01:01:59.252Z,0
2016-03-27T01:02:59.254Z,0
2016-03-27T01:03:59.241Z,0
2016-03-27T01:04:59.072Z,0
2016-03-27T01:05:59.199Z,0
2016-03-27T01:06:59.031Z,0
2016-03-27T01:07:59.178Z,0
2016-03-27T01:08:59.149Z,0
2016-03-27T01:09:59.152Z,0
2016-03-27T01:10:59.139Z,0
2016-03-27T01:11:59.344Z,0
2016-03-27T01:12:59.114Z,0
2016-03-27T01:13:59.116Z,0
2016-03-27T01:14:59.102Z,0
2016-03-27T01:15:59.090Z,0
2016-03-27T01:16:59.280Z,0
2016-03-27T01:17:59.048Z,0
2016-03-27T01:18:59.942Z,0
2016-03-27T01:19:59.022Z,0
2016-03-27T01:20:59.010Z,0
2016-03-27T01:21:58.997Z,0
2016-03-27T01:22:58.983Z,0
2016-03-27T01:23:58.971Z,0
2016-03-27T01:24:58.974Z,0
2016-03-27T01:25:59.101Z,0
2016-03-27T01:26:58.962Z,0
2016-03-27T01:27:58.951Z,0
2016-03-27T01:28:58.921Z,0
2016-03-27T01:29:58.909Z,0
2016-03-27T01:30:58.880Z,0
2016-03-27T01:31:58.914Z,0
2016-03-27T01:32:58.885Z,0
2016-03-27T01:33:59.060Z,0
2016-03-27T01:34:58.844Z,0
2016-03-27T01:35:58.831Z,0
2016-03-27T01:36:58.818Z,0
2016-03-27T01:37:58.805Z,0
2016-03-27T01:38:58.792Z,0
2016-03-27T01:39:58.795Z,0
2016-03-27T01:40:58.970Z,0
2016-03-27T01:41:58.754Z,0
2016-03-27T01:42:58.631Z,0
2016-03-27T01:43:58.743Z,0
2016-03-27T01:44:58.746Z,0
2016-03-27T01:45:58.920Z,0
2016-03-27T01:46:58.798Z,0
2016-03-27T01:47:58.691Z,0
2016-03-27T01:48:59.522Z,0
2016-03-27T01:49:58.681Z,0
2016-03-27T01:50:58.653Z,0
2016-03-27T01:51:58.640Z,0
2016-03-27T01:52:58.627Z,0
2016-03-27T01:53:58.614Z,0
2016-03-27T01:54:59.101Z,0
2016-03-27T01:55:58.588Z,0
2016-03-27T01:56:58.591Z,0
2016-03-27T01:57:58.577Z,0
2016-03-27T01:58:58.580Z,0
2016-03-27T01:59:58.552Z,0
2016-03-27T02:00:58.539Z,0
2016-03-27T02:01:58.745Z,0
2016-03-27T02:02:58.513Z,0
2016-03-27T02:03:58.500Z,0
2016-03-27T02:04:58.488Z,0
2016-03-27T02:05:58.474Z,0
2016-03-27T02:06:58.470Z,0
2016-03-27T02:07:59.191Z,0
2016-03-27T02:08:58.318Z,0
2016-03-27T02:09:58.556Z,0
2016-03-27T02:10:58.803Z,0
2016-03-27T02:11:58.618Z,0
2016-03-27T02:12:58.417Z,0
2016-03-27T02:13:58.406Z,0
2016-03-27T02:14:58.392Z,0
2016-03-27T02:15:58.363Z,0
2016-03-27T02:16:58.116Z,0
2016-03-27T02:17:58.337Z,0
2016-03-27T02:18:58.340Z,0
2016-03-27T02:19:58.343Z,0
2016-03-27T02:20:58.314Z,0
2016-03-27T02:21:58.317Z,0
2016-03-27T02:22:58.289Z,0
2016-03-27T02:23:58.275Z,0
2016-03-27T02:24:58.262Z,0
2016-03-27T02:25:58.249Z,0
2016-03-27T02:26:58.236Z,0
2016-03-27T02:27:58.224Z,0
2016-03-27T02:28:58.211Z,0
2016-03-27T02:29:58.198Z,0
2016-03-27T02:30:58.201Z,0
2016-03-27T02:31:58.125Z,0
2016-03-27T02:32:58.174Z,0
2016-03-27T02:33:58.162Z,0
2016-03-27T02:34:58.132Z,0
2016-03-27T02:35:58.136Z,0
2016-03-27T02:36:58.123Z,0
2016-03-27T02:37:58.110Z,0
2016-03-27T02:38:58.176Z,0
2016-03-27T02:39:58.100Z,0
2016-03-27T02:40:58.103Z,0
2016-03-27T02:41:58.090Z,0
2016-03-27T02:42:58.061Z,0
2016-03-27T02:43:58.048Z,0
2016-03-27T02:44:58.034Z,0
2016-03-27T02:45:58.022Z,0
2016-03-27T02:46:58.244Z,0
2016-03-27T02:47:57.997Z,0
2016-03-27T02:48:57.983Z,0
2016-03-27T02:49:57.970Z,0
2016-03-27T02:50:57.958Z,0
2016-03-27T02:51:57.944Z,0
2016-03-27T02:52:57.947Z,0
2016-03-27T02:53:57.950Z,0
2016-03-27T02:54:57.921Z,0
2016-03-27T02:55:57.924Z,0
2016-03-27T02:56:57.911Z,0
2016-03-27T02:57:57.882Z,0
2016-03-27T02:58:57.886Z,0
2016-03-27T02:59:57.857Z,0
2016-03-27T03:00:57.827Z,0
2016-03-27T03:01:57.847Z,0
2016-03-27T03:02:57.818Z,0
2016-03-27T03:03:57.805Z,0
2016-03-27T03:04:57.793Z,0
2016-03-27T03:05:57.779Z,0
2016-03-27T03:06:57.798Z,0
2016-03-27T03:07:57.785Z,0
2016-03-27T03:08:57.771Z,0
2016-03-27T03:09:57.758Z,0
2016-03-27T03:10:57.746Z,0
2016-03-27T03:11:57.732Z,0
2016-03-27T03:12:57.720Z,0
2016-03-27T03:13:57.692Z,0
2016-03-27T03:14:57.678Z,0
2016-03-27T03:15:57.681Z,0
2016-03-27T03:16:57.746Z,0
2016-03-27T03:17:57.655Z,0
2016-03-27T03:18:57.626Z,0
2016-03-27T03:19:57.629Z,0
2016-03-27T03:20:57.616Z,0
2016-03-27T03:21:57.604Z,0
2016-03-27T03:22:57.606Z,0
2016-03-27T03:23:57.608Z,0
2016-03-27T03:24:57.597Z,0
2016-03-27T03:25:57.583Z,0
2016-03-27T03:26:57.555Z,0
2016-03-27T03:27:57.525Z,0
2016-03-27T03:28:57.528Z,0
2016-03-27T03:29:57.499Z,0
2016-03-27T03:30:57.503Z,0
2016-03-27T03:31:57.490Z,0
2016-03-27T03:32:57.476Z,0
2016-03-27T03:33:57.464Z,0
2016-03-27T03:34:57.451Z,0
2016-03-27T03:35:57.453Z,0
2016-03-27T03:36:57.441Z,0
2016-03-27T03:37:57.427Z,0
2016-03-27T03:38:57.430Z,0
2016-03-27T03:39:57.418Z,0
2016-03-27T03:40:57.404Z,0
2016-03-27T03:41:57.392Z,0
2016-03-27T03:42:57.363Z,0
2016-03-27T03:43:57.350Z,0
2016-03-27T03:44:57.337Z,0
2016-03-27T03:45:57.324Z,0
2016-03-27T03:46:57.311Z,0
2016-03-27T03:47:57.314Z,0
2016-03-27T03:48:57.301Z,0
2016-03-27T03:49:57.303Z,0
2016-03-27T03:50:57.275Z,0
2016-03-27T03:51:57.262Z,0
2016-03-27T03:52:57.249Z,0
2016-03-27T03:53:57.236Z,0
2016-03-27T03:54:57.223Z,0
2016-03-27T03:55:57.210Z,0
2016-03-27T03:56:57.214Z,0
2016-03-27T03:57:57.185Z,0
2016-03-27T03:58:57.172Z,0
2016-03-27T03:59:57.143Z,0
2016-03-27T04:00:57.146Z,0
2016-03-27T04:01:57.164Z,0
2016-03-27T04:02:57.135Z,0
2016-03-27T04:03:57.107Z,0
2016-03-27T04:04:57.110Z,0
2016-03-27T04:05:57.097Z,0
2016-03-27T04:06:57.115Z,0
2016-03-27T04:07:57.104Z,0
2016-03-27T04:08:57.075Z,0
2016-03-27T04:09:57.047Z,0
2016-03-27T04:10:57.034Z,0
2016-03-27T04:11:57.020Z,0
2016-03-27T04:12:57.008Z,0
2016-03-27T04:13:56.995Z,0
2016-03-27T04:14:56.998Z,0
2016-03-27T04:15:56.969Z,0
2016-03-27T04:16:56.956Z,0
2016-03-27T04:17:56.944Z,0
2016-03-27T04:18:56.931Z,0
2016-03-27T04:19:56.933Z,0
2016-03-27T04:20:56.919Z,0
2016-03-27T04:21:56.923Z,0
2016-03-27T04:22:56.879Z,0
2016-03-27T04:23:56.882Z,0
2016-03-27T04:24:56.853Z,0
2016-03-27T04:25:56.090Z,0
2016-03-27T04:26:56.827Z,0
2016-03-27T04:27:56.814Z,0
2016-03-27T04:28:56.785Z,0
2016-03-27T04:29:56.772Z,0
2016-03-27T04:30:56.776Z,0
2016-03-27T04:31:56.778Z,0
2016-03-27T04:32:56.749Z,0
2016-03-27T04:33:56.737Z,0
2016-03-27T04:34:56.739Z,0
2016-03-27T04:35:56.710Z,0
2016-03-27T04:36:56.698Z,0
2016-03-27T04:37:56.685Z,0
2016-03-27T04:38:56.672Z,0
2016-03-27T04:39:56.659Z,0
2016-03-27T04:40:56.645Z,0
2016-03-27T04:41:56.634Z,0
2016-03-27T04:42:56.620Z,0
2016-03-27T04:43:56.622Z,0
2016-03-27T04:44:56.594Z,0
2016-03-27T04:45:56.566Z,0
2016-03-27T04:46:56.569Z,0
2016-03-27T04:47:56.414Z,0
2016-03-27T04:48:56.542Z,0
2016-03-27T04:49:56.545Z,0
2016-03-27T04:50:56.547Z,0
2016-03-27T04:51:56.519Z,0
2016-03-27T04:52:56.506Z,0
2016-03-27T04:53:56.508Z,0
2016-03-27T04:54:56.496Z,0
2016-03-27T04:55:56.468Z,0
2016-03-27T04:56:56.454Z,0
2016-03-27T04:57:56.441Z,0
2016-03-27T04:58:56.429Z,0
2016-03-27T04:59:56.399Z,0
2016-03-27T05:00:56.402Z,0
2016-03-27T05:01:56.390Z,0
2016-03-27T05:02:56.376Z,0
2016-03-27T05:03:56.364Z,0
2016-03-27T05:04:56.351Z,0
2016-03-27T05:05:56.337Z,0
2016-03-27T05:06:56.326Z,0
2016-03-27T05:07:56.312Z,0
2016-03-27T05:08:56.299Z,0
2016-03-27T05:09:56.287Z,0
2016-03-27T05:10:56.273Z,0
2016-03-27T05:11:56.261Z,0
2016-03-27T05:12:56.247Z,0
2016-03-27T05:13:56.234Z,0
2016-03-27T05:14:56.236Z,0
2016-03-27T05:15:56.225Z,0
2016-03-27T05:16:56.195Z,0
2016-03-27T05:17:56.011Z,0
2016-03-27T05:18:56.014Z,0
2016-03-27T05:19:56.157Z,0
2016-03-27T05:20:56.160Z,0
2016-03-27T05:21:56.131Z,0
2016-03-27T05:22:55.946Z,0
2016-03-27T05:23:56.089Z,0
2016-03-27T05:24:56.077Z,0
2016-03-27T05:25:56.063Z,0
2016-03-27T05:26:56.052Z,0
2016-03-27T05:27:56.038Z,5
2016-03-27T05:28:56.009Z,5
2016-03-27T05:29:55.997Z,5
2016-03-27T05:30:55.999Z,5
2016-03-27T05:31:55.985Z,5
2016-03-27T05:32:55.957Z,5
2016-03-27T05:33:55.960Z,5
2016-03-27T05:34:55.948Z,5
2016-03-27T05:35:55.935Z,10
2016-03-27T05:36:55.937Z,10
2016-03-27T05:37:55.908Z,10
2016-03-27T05:38:55.880Z,10
2016-03-27T05:39:55.867Z,15
2016-03-27T05:40:55.853Z,15
2016-03-27T05:41:55.842Z,20
2016-03-27T05:42:55.844Z,15
2016-03-27T05:43:55.815Z,15
2016-03-27T05:44:55.803Z,15
2016-03-27T05:45:55.789Z,10
2016-03-27T05:46:55.776Z,15
2016-03-27T05:47:55.747Z,20
2016-03-27T05:48:55.750Z,20
2016-03-27T05:49:55.581Z,15
2016-03-27T05:50:55.725Z,20
2016-03-27T05:51:55.711Z,20
2016-03-27T05:52:55.684Z,20
2016-03-27T05:53:55.670Z,20
2016-03-27T05:54:55.672Z,20
2016-03-27T05:55:55.644Z,20
2016-03-27T05:56:55.632Z,20
2016-03-27T05:57:55.602Z,20
2016-03-27T05:58:55.590Z,25
2016-03-27T05:59:55.577Z,20
2016-03-27T06:00:55.688Z,25
2016-03-27T06:01:55.567Z,30
2016-03-27T06:02:55.538Z,35
2016-03-27T06:03:55.540Z,35
2016-03-27T06:04:55.544Z,35
2016-03-27T06:05:55.515Z,40
2016-03-27T06:06:55.501Z,40
2016-03-27T06:07:55.490Z,45
2016-03-27T06:08:55.460Z,45
2016-03-27T06:09:55.448Z,45
2016-03-27T06:10:55.435Z,45
2016-03-27T06:11:55.422Z,45
2016-03-27T06:12:55.409Z,45
2016-03-27T06:13:55.381Z,50
2016-03-27T06:14:55.383Z,55
2016-03-27T06:15:55.369Z,60
2016-03-27T06:16:55.373Z,60
2016-03-27T06:17:55.328Z,65
2016-03-27T06:18:55.331Z,65
2016-03-27T06:19:55.319Z,70
2016-03-27T06:20:55.289Z,70
2016-03-27T06:21:55.277Z,75
2016-03-27T06:22:55.264Z,75
2016-03-27T06:23:55.266Z,80
2016-03-27T06:24:55.238Z,80
2016-03-27T06:25:55.225Z,80
2016-03-27T06:26:55.180Z,85
2016-03-27T06:27:55.169Z,80
2016-03-27T06:28:55.155Z,75
2016-03-27T06:29:55.141Z,75
2016-03-27T06:30:55.145Z,75
2016-03-27T06:31:55.116Z,70
2016-03-27T06:32:55.228Z,70
2016-03-27T06:33:55.107Z,60
2016-03-27T06:34:55.093Z,60
2016-03-27T06:35:55.065Z,60
2016-03-27T06:36:55.051Z,60
2016-03-27T06:37:55.038Z,60
2016-03-27T06:38:55.010Z,65
2016-03-27T06:39:55.012Z,65
2016-03-27T06:40:54.984Z,65
2016-03-27T06:41:54.971Z,65
2016-03-27T06:42:54.973Z,65
2016-03-27T06:43:54.946Z,60
2016-03-27T06:44:54.932Z,65
2016-03-27T06:45:54.935Z,70
2016-03-27T06:46:54.906Z,75
2016-03-27T06:47:54.894Z,85
2016-03-27T06:48:54.740Z,95
2016-03-27T06:49:54.868Z,95
2016-03-27T06:50:54.855Z,90
2016-03-27T06:51:54.858Z,70
2016-03-27T06:52:54.813Z,50
2016-03-27T06:53:54.800Z,60
2016-03-27T06:54:54.787Z,65
2016-03-27T06:55:54.775Z,75
2016-03-27T06:56:54.761Z,75
2016-03-27T06:57:54.763Z,75
2016-03-27T06:58:54.736Z,70
2016-03-27T06:59:54.722Z,65
2016-03-27T07:00:54.710Z,100
2016-03-27T07:01:54.713Z,95
2016-03-27T07:02:54.668Z,85
2016-03-27T07:03:54.671Z,105
2016-03-27T07:04:54.658Z,105
2016-03-27T07:05:54.645Z,100
2016-03-27T07:06:54.616Z,85
2016-03-27T07:07:54.604Z,105
2016-03-27T07:08:54.591Z,155
2016-03-27T07:09:54.578Z,160
2016-03-27T07:10:54.564Z,160
2016-03-27T07:11:54.537Z,130
2016-03-27T07:12:54.523Z,155
2016-03-27T07:13:54.509Z,180
2016-03-27T07:14:54.513Z,170
2016-03-27T07:15:54.500Z,145
2016-03-27T07:16:54.487Z,145
2016-03-27T07:17:54.646Z,145
2016-03-27T07:18:54.445Z,190
2016-03-27T07:19:54.433Z,205
2016-03-27T07:20:54.404Z,225
2016-03-27T07:21:54.406Z,245
2016-03-27T07:22:54.394Z,265
2016-03-27T07:23:54.366Z,300
2016-03-27T07:24:54.353Z,325
2016-03-27T07:25:54.339Z,335
2016-03-27T07:26:54.342Z,325
2016-03-27T07:27:54.314Z,295
2016-03-27T07:28:54.161Z,265
2016-03-27T07:29:54.287Z,235
2016-03-27T07:30:54.291Z,210
2016-03-27T07:31:54.262Z,205
2016-03-27T07:32:54.358Z,215
2016-03-27T07:33:54.221Z,205
2016-03-27T07:34:54.207Z,195
2016-03-27T07:35:54.194Z,200
2016-03-27T07:36:54.182Z,210
2016-03-27T07:37:54.168Z,215
2016-03-27T07:38:54.156Z,225
2016-03-27T07:39:54.143Z,280
2016-03-27T07:40:54.129Z,335
2016-03-27T07:41:54.118Z,370
2016-03-27T07:42:54.104Z,350
2016-03-27T07:43:54.090Z,325
2016-03-27T07:44:54.079Z,315
2016-03-27T07:45:54.065Z,305
2016-03-27T07:46:54.052Z,310
2016-03-27T07:47:54.430Z,330
2016-03-27T07:48:54.011Z,360
2016-03-27T07:49:53.264Z,395
2016-03-27T07:50:53.984Z,430
2016-03-27T07:51:53.972Z,465
2016-03-27T07:52:53.975Z,505
2016-03-27T07:53:53.946Z,535
2016-03-27T07:54:53.933Z,525
2016-03-27T07:55:53.920Z,520
2016-03-27T07:56:53.938Z,515
2016-03-27T07:57:53.895Z,515
2016-03-27T07:58:53.897Z,525
2016-03-27T07:59:53.883Z,545
2016-03-27T08:00:53.856Z,560
2016-03-27T08:01:53.843Z,590
2016-03-27T08:02:54.016Z,625
2016-03-27T08:03:53.816Z,620
2016-03-27T08:04:53.851Z,585
2016-03-27T08:05:53.806Z,580
2016-03-27T08:06:53.607Z,605
2016-03-27T08:07:53.749Z,645
2016-03-27T08:08:53.736Z,665
2016-03-27T08:09:53.724Z,665
2016-03-27T08:10:53.726Z,670
2016-03-27T08:11:53.712Z,695
2016-03-27T08:12:53.701Z,720
2016-03-27T08:13:53.687Z,740
2016-03-27T08:14:53.674Z,765
2016-03-27T08:15:53.646Z,725
2016-03-27T08:16:53.633Z,620
2016-03-27T08:17:53.682Z,600
2016-03-27T08:18:53.607Z,730
2016-03-27T08:19:53.594Z,835
2016-03-27T08:20:53.581Z,1240
2016-03-27T08:21:53.584Z,1780
2016-03-27T08:22:53.556Z,1880
2016-03-27T08:23:53.558Z,1520
2016-03-27T08:24:53.561Z,1000
2016-03-27T08:25:53.547Z,905
2016-03-27T08:26:53.378Z,770
2016-03-27T08:27:53.506Z,640
2016-03-27T08:28:53.493Z,615
2016-03-27T08:29:54.277Z,735
2016-03-27T08:30:53.467Z,1110
2016-03-27T08:31:53.455Z,1390
2016-03-27T08:32:53.410Z,1645
2016-03-27T08:33:53.444Z,1180
2016-03-27T08:34:53.432Z,1205
2016-03-27T08:35:53.434Z,885
2016-03-27T08:36:53.405Z,820
2016-03-27T08:37:53.393Z,800
2016-03-27T08:38:53.395Z,790
2016-03-27T08:39:53.399Z,775
2016-03-27T08:40:53.385Z,785
2016-03-27T08:41:53.356Z,820
2016-03-27T08:42:53.343Z,860
2016-03-27T08:43:53.346Z,905
2016-03-27T08:44:53.317Z,900
2016-03-27T08:45:53.304Z,880
2016-03-27T08:46:53.307Z,915
2016-03-27T08:47:53.153Z,925
2016-03-27T08:48:53.282Z,940
2016-03-27T08:49:53.284Z,975
2016-03-27T08:50:53.255Z,1005
2016-03-27T08:51:53.243Z,975
2016-03-27T08:52:53.261Z,1050
2016-03-27T08:53:53.247Z,1050
2016-03-27T08:54:53.236Z,1045
2016-03-27T08:55:53.191Z,1100
2016-03-27T08:56:53.194Z,970
2016-03-27T08:57:53.181Z,865
2016-03-27T08:58:53.167Z,775
2016-03-27T08:59:53.030Z,840
2016-03-27T09:00:53.360Z,905
2016-03-27T09:01:53.129Z,990
2016-03-27T09:02:53.116Z,995
2016-03-27T09:03:53.102Z,1000
2016-03-27T09:04:53.091Z,1080
2016-03-27T09:05:53.093Z,1110
2016-03-27T09:06:53.080Z,1365
2016-03-27T09:07:53.096Z,1270
2016-03-27T09:08:53.067Z,1405
2016-03-27T09:09:53.258Z,1245
2016-03-27T09:10:53.041Z,1035
2016-03-27T09:11:53.029Z,1140
2016-03-27T09:12:53.032Z,1085
2016-03-27T09:13:53.050Z,1140
2016-03-27T09:14:52.974Z,1280
2016-03-27T09:15:52.993Z,1215
2016-03-27T09:16:52.964Z,1240
2016-03-27T09:17:52.951Z,1300
2016-03-27T09:18:53.313Z,1400
2016-03-27T09:19:52.941Z,1390
2016-03-27T09:20:52.974Z,1400
2016-03-27T09:21:52.916Z,1410
2016-03-27T09:22:53.121Z,1390
2016-03-27T09:23:52.900Z,1360
2016-03-27T09:24:52.876Z,1415
2016-03-27T09:25:52.850Z,1430
2016-03-27T09:26:52.825Z,1485
2016-03-27T09:27:52.801Z,1595
2016-03-27T09:28:53.420Z,1395
2016-03-27T09:29:52.763Z,1305
2016-03-27T09:30:52.761Z,1500
2016-03-27T09:31:52.993Z,1580
2016-03-27T09:32:52.804Z,1180
2016-03-27T09:33:52.710Z,1200
2016-03-27T09:34:52.695Z,1225
2016-03-27T09:35:52.696Z,1340
2016-03-27T09:36:52.698Z,1115
2016-03-27T09:37:52.683Z,1100
2016-03-27T09:38:52.654Z,1010
2016-03-27T09:39:52.672Z,1050
2016-03-27T09:40:52.643Z,1055
2016-03-27T09:41:52.646Z,1100
2016-03-27T09:42:52.615Z,1175
2016-03-27T09:43:52.617Z,1185
2016-03-27T09:44:52.605Z,1130
2016-03-27T09:45:52.607Z,1300
2016-03-27T09:46:52.594Z,1520
2016-03-27T09:47:52.580Z,1645
2016-03-27T09:48:52.567Z,1595
2016-03-27T09:49:52.570Z,1295
2016-03-27T09:50:52.760Z,1185
2016-03-27T09:51:52.545Z,1155
2016-03-27T09:52:52.515Z,1150
2016-03-27T09:53:52.534Z,1170
2016-03-27T09:54:52.536Z,1295
2016-03-27T09:55:52.509Z,1150
2016-03-27T09:56:52.495Z,1135
2016-03-27T09:57:52.466Z,1115
2016-03-27T09:58:52.485Z,1315
2016-03-27T09:59:52.612Z,1390
2016-03-27T10:00:52.458Z,1540
2016-03-27T10:01:52.697Z,1210
2016-03-27T10:02:52.277Z,1200
2016-03-27T10:03:52.623Z,1015
2016-03-27T10:04:52.423Z,1125
2016-03-27T10:05:52.613Z,1075
2016-03-27T10:06:52.413Z,1285
2016-03-27T10:07:52.400Z,2130
2016-03-27T10:08:53.246Z,1190
2016-03-27T10:09:52.389Z,1125
2016-03-27T10:10:52.361Z,1515
2016-03-27T10:11:52.363Z,2395
2016-03-27T10:12:52.366Z,1145
2016-03-27T10:13:52.338Z,1190
2016-03-27T10:14:52.731Z,1310
2016-03-27T10:15:52.312Z,1225
2016-03-27T10:16:52.330Z,1225
2016-03-27T10:17:52.301Z,1600
2016-03-27T10:18:52.304Z,3495
2016-03-27T10:19:52.307Z,1965
2016-03-27T10:20:52.122Z,1430
2016-03-27T10:21:52.282Z,1195
2016-03-27T10:22:52.284Z,1115
2016-03-27T10:23:52.270Z,1320
2016-03-27T10:24:52.274Z,2235
2016-03-27T10:25:52.245Z,1335
2016-03-27T10:26:52.231Z,1255
2016-03-27T10:27:52.235Z,1405
2016-03-27T10:28:52.222Z,1335
2016-03-27T10:29:52.240Z,1085
2016-03-27T10:30:52.211Z,925
2016-03-27T10:31:52.214Z,990
2016-03-27T10:32:52.200Z,1105
2016-03-27T10:33:52.033Z,995
2016-03-27T10:34:52.191Z,1035
2016-03-27T10:35:52.177Z,1080
2016-03-27T10:36:52.212Z,1065
2016-03-27T10:37:52.168Z,1070
2016-03-27T10:38:52.155Z,1115
2016-03-27T10:39:52.158Z,1310
2016-03-27T10:40:52.160Z,1300
2016-03-27T10:41:52.116Z,2165
2016-03-27T10:42:52.135Z,1015
2016-03-27T10:43:52.121Z,905
2016-03-27T10:44:52.108Z,1040
2016-03-27T10:45:52.111Z,1160
2016-03-27T10:46:52.114Z,1200
2016-03-27T10:47:52.071Z,2685
2016-03-27T10:48:52.073Z,2135
2016-03-27T10:49:52.059Z,1675
2016-03-27T10:50:52.078Z,1425
2016-03-27T10:51:52.081Z,3865
2016-03-27T10:52:52.051Z,3820
2016-03-27T10:53:52.070Z,3775
2016-03-27T10:54:52.042Z,3305
2016-03-27T10:55:52.013Z,2650
2016-03-27T10:56:52.047Z,2440
2016-03-27T10:57:52.018Z,1580
2016-03-27T10:58:52.006Z,1480
2016-03-27T10:59:52.023Z,1160
2016-03-27T11:00:52.011Z,3520
2016-03-27T11:01:51.998Z,1505
2016-03-27T11:02:52.000Z,1735
2016-03-27T11:03:51.989Z,1365
2016-03-27T11:04:52.006Z,1255
2016-03-27T11:05:51.993Z,1200
2016-03-27T11:06:51.965Z,1855
2016-03-27T11:07:51.983Z,4150
2016-03-27T11:08:51.954Z,3945
2016-03-27T11:09:51.972Z,3795
2016-03-27T11:10:51.960Z,2865
2016-03-27T11:11:51.947Z,2785
2016-03-27T11:12:51.965Z,3885
2016-03-27T11:13:51.936Z,2795
2016-03-27T11:14:51.955Z,1190
2016-03-27T11:15:51.941Z,1120
2016-03-27T11:16:51.913Z,1045
2016-03-27T11:17:51.916Z,1110
2016-03-27T11:18:51.903Z,1175
2016-03-27T11:19:51.922Z,1105
2016-03-27T11:20:51.909Z,1155
2016-03-27T11:21:51.879Z,1100
2016-03-27T11:22:51.915Z,1095
2016-03-27T11:23:51.901Z,1200
2016-03-27T11:24:51.903Z,2555
2016-03-27T11:25:51.875Z,1115
2016-03-27T11:26:51.862Z,935
2016-03-27T11:27:51.865Z,845
2016-03-27T11:28:51.851Z,950
2016-03-27T11:29:51.839Z,980
2016-03-27T11:30:51.857Z,845
2016-03-27T11:31:51.828Z,745
2016-03-27T11:32:51.847Z,695
2016-03-27T11:33:51.819Z,740
2016-03-27T11:34:51.822Z,815
2016-03-27T11:35:51.825Z,860
2016-03-27T11:36:51.639Z,1065
2016-03-27T11:37:51.641Z,1105
2016-03-27T11:38:51.785Z,935
2016-03-27T11:39:51.803Z,770
2016-03-27T11:40:51.775Z,675
2016-03-27T11:41:51.746Z,600
2016-03-27T11:42:51.764Z,505
2016-03-27T11:43:51.736Z,485
2016-03-27T11:44:51.738Z,535
2016-03-27T11:45:51.741Z,600
2016-03-27T11:46:51.713Z,595
2016-03-27T11:47:51.731Z,530
2016-03-27T11:48:51.687Z,470
2016-03-27T11:49:51.721Z,410
2016-03-27T11:50:51.693Z,370
2016-03-27T11:51:51.663Z,360
2016-03-27T11:52:51.682Z,480
2016-03-27T11:53:51.638Z,680
2016-03-27T11:54:51.671Z,925
2016-03-27T11:55:51.628Z,1245
2016-03-27T11:56:51.631Z,1475
2016-03-27T11:57:51.477Z,1625
2016-03-27T11:58:51.604Z,1415
2016-03-27T11:59:51.607Z,1230
2016-03-27T12:00:51.610Z,1080
2016-03-27T12:01:51.612Z,1075
2016-03-27T12:02:51.583Z,1045
2016-03-27T12:03:51.696Z,955
2016-03-27T12:04:51.558Z,910
2016-03-27T12:05:51.576Z,1195
2016-03-27T12:06:51.548Z,1475
2016-03-27T12:07:51.550Z,1855
2016-03-27T12:08:51.522Z,3935
2016-03-27T12:09:51.525Z,4240
2016-03-27T12:10:51.512Z,4040
2016-03-27T12:11:51.499Z,2865
2016-03-27T12:12:51.517Z,3615
2016-03-27T12:13:51.488Z,3540
2016-03-27T12:14:51.491Z,3150
2016-03-27T12:15:51.493Z,3450
2016-03-27T12:16:51.497Z,3620
2016-03-27T12:17:51.468Z,3660
2016-03-27T12:18:51.580Z,955
2016-03-27T12:19:51.457Z,2085
2016-03-27T12:20:51.461Z,3885
2016-03-27T12:21:51.463Z,3700
2016-03-27T12:22:51.450Z,3705
2016-03-27T12:23:51.438Z,3600
2016-03-27T12:24:51.456Z,3710
2016-03-27T12:25:51.411Z,3700
2016-03-27T12:26:51.429Z,1345
2016-03-27T12:27:51.432Z,3775
2016-03-27T12:28:51.435Z,1050
2016-03-27T12:29:51.422Z,1220
2016-03-27T12:30:51.268Z,1800
2016-03-27T12:31:51.412Z,1230
2016-03-27T12:32:51.414Z,1040
2016-03-27T12:33:51.808Z,1115
2016-03-27T12:34:51.404Z,1965
2016-03-27T12:35:51.407Z,1545
2016-03-27T12:36:51.394Z,1390
2016-03-27T12:37:51.412Z,1495
2016-03-27T12:38:51.400Z,2795
2016-03-27T12:39:51.386Z,4095
2016-03-27T12:40:51.436Z,3540
2016-03-27T12:41:51.391Z,3490
2016-03-27T12:42:51.380Z,3380
2016-03-27T12:43:51.413Z,3225
2016-03-27T12:44:51.399Z,2380
2016-03-27T12:45:51.371Z,3065
2016-03-27T12:46:51.405Z,3395
2016-03-27T12:47:51.377Z,3430
2016-03-27T12:48:51.473Z,3375
2016-03-27T12:49:51.383Z,3325
2016-03-27T12:50:51.354Z,3285
2016-03-27T12:51:51.371Z,3325
2016-03-27T12:52:51.360Z,3300
2016-03-27T12:53:51.346Z,3340
2016-03-27T12:54:51.380Z,3280
2016-03-27T12:55:51.367Z,3230
2016-03-27T12:56:51.354Z,3285
2016-03-27T12:57:51.357Z,2660
2016-03-27T12:58:51.359Z,3305
2016-03-27T12:59:51.362Z,1065
2016-03-27T13:00:51.365Z,3275
2016-03-27T13:01:51.351Z,2460
2016-03-27T13:02:51.339Z,2925
2016-03-27T13:03:51.264Z,825
2016-03-27T13:04:51.329Z,1035
2016-03-27T13:05:51.331Z,1425
2016-03-27T13:06:51.365Z,2025
2016-03-27T13:07:51.336Z,1600
2016-03-27T13:08:51.339Z,3720
2016-03-27T13:09:51.342Z,1360
2016-03-27T13:10:51.330Z,1810
2016-03-27T13:11:51.316Z,2950
2016-03-27T13:12:51.319Z,1965
2016-03-27T13:13:51.338Z,1055
2016-03-27T13:14:51.308Z,1040
2016-03-27T13:15:51.343Z,1155
2016-03-27T13:16:51.314Z,1050
2016-03-27T13:17:51.302Z,1005
2016-03-27T13:18:51.320Z,1050
2016-03-27T13:19:51.307Z,1185
2016-03-27T13:20:51.294Z,1150
2016-03-27T13:21:51.296Z,1045
2016-03-27T13:22:51.282Z,980
2016-03-27T13:23:51.302Z,2430
2016-03-27T13:24:51.273Z,2990
2016-03-27T13:25:51.307Z,2900
2016-03-27T13:26:51.263Z,3325
2016-03-27T13:27:51.282Z,3165
2016-03-27T13:28:51.268Z,2810
2016-03-27T13:29:51.286Z,2875
2016-03-27T13:30:51.259Z,2785
2016-03-27T13:31:51.261Z,2855
2016-03-27T13:32:51.248Z,2875
2016-03-27T13:33:51.251Z,2885
2016-03-27T13:34:51.253Z,2855
2016-03-27T13:35:51.240Z,2870
2016-03-27T13:36:51.258Z,2815
2016-03-27T13:37:51.230Z,2790
2016-03-27T13:38:51.248Z,2775
2016-03-27T13:39:51.236Z,2765
2016-03-27T13:40:51.253Z,2745
2016-03-27T13:41:51.225Z,2720
2016-03-27T13:42:51.244Z,2730
2016-03-27T13:43:51.214Z,2710
2016-03-27T13:44:51.233Z,2660
2016-03-27T13:45:51.220Z,2695
2016-03-27T13:46:51.222Z,2675
2016-03-27T13:47:51.055Z,2680
2016-03-27T13:48:51.228Z,2650
2016-03-27T13:49:51.230Z,2645
2016-03-27T13:50:51.202Z,2630
2016-03-27T13:51:51.235Z,2630
2016-03-27T13:52:51.193Z,2705
2016-03-27T13:53:51.210Z,2720
2016-03-27T13:54:51.198Z,2730
2016-03-27T13:55:51.201Z,2790
2016-03-27T13:56:51.204Z,2720
2016-03-27T13:57:51.206Z,2725
2016-03-27T13:58:51.176Z,2710
2016-03-27T13:59:51.196Z,2635
2016-03-27T14:00:51.182Z,1785
2016-03-27T14:01:51.185Z,2730